Time;durP1;ratioP1;P1;durP2;ratioP2;P2;SDS_P1;SDS_P2;PMS_P1;PMS_P2;Temp;Humidity;BMP_temperature;BMP_pressure;BME280_temperature;BME280_humidity;BME280_pressure;Samples;Min_cycle;Max_cycle;Signal;HPM_P1;HPM_P2
2022/01/04 00:00:47;;;;;;;29.23;12.30;;;;;;;;;;4915693;28;95311;-75
2022/01/04 00:03:13;;;;;;;29.70;12.40;;;;;;;;;;4918516;28;96862;-77
2022/01/04 00:05:40;;;;;;;25.58;11.85;;;;;;;;;;4934435;28;97539;-76
2022/01/04 00:08:10;;;;;;;30.67;12.75;;;;;;;;;;4934872;28;95259;-75
2022/01/04 00:10:36;;;;;;;27.42;12.63;;;;;;;;;;4934189;28;96638;-75
2022/01/04 00:15:52;;;;;;;27.77;12.25;;;;;;;;;;4915222;28;95318;-74
2022/01/04 00:18:19;;;;;;;26.50;13.23;;;;;;;;;;4916290;28;96998;-76
2022/01/04 00:20:46;;;;;;;25.60;14.02;;;;;;;;;;4915201;28;95238;-77
2022/01/04 00:23:12;;;;;;;27.45;12.73;;;;;;;;;;4915118;28;96985;-76
2022/01/04 00:25:39;;;;;;;31.63;13.48;;;;;;;;;;4933889;28;97669;-77
2022/01/04 00:28:08;;;;;;;30.25;14.10;;;;;;;;;;4934355;28;95358;-77
2022/01/04 00:30:35;;;;;;;30.63;14.35;;;;;;;;;;4934088;28;97091;-74
2022/01/04 00:33:02;;;;;;;31.08;14.02;;;;;;;;;;4932790;28;97588;-77
2022/01/04 00:35:28;;;;;;;34.15;14.52;;;;;;;;;;4915181;28;95386;-75
2022/01/04 00:37:55;;;;;;;27.40;14.70;;;;;;;;;;4914528;28;96475;-75
2022/01/04 00:40:22;;;;;;;28.98;14.07;;;;;;;;;;4916263;28;97439;-74
2022/01/04 00:42:48;;;;;;;30.23;14.23;;;;;;;;;;4914855;28;96787;-74
2022/01/04 00:45:14;;;;;;;26.25;14.65;;;;;;;;;;4914672;28;97568;-74
2022/01/04 00:49:09;;;;;;;34.97;14.95;;;;;;;;;;4914677;28;95300;-75
2022/01/04 00:50:28;;;;;;;31.15;14.80;;;;;;;;;;4914194;28;95788;-73
2022/01/04 00:52:55;;;;;;;29.02;14.02;;;;;;;;;;4921686;28;97323;-73
2022/01/04 00:55:22;;;;;;;29.35;14.70;;;;;;;;;;4933811;28;95246;-72
2022/01/04 00:57:48;;;;;;;33.70;15.15;;;;;;;;;;4933908;28;97278;-73
2022/01/04 01:00:15;;;;;;;29.55;13.38;;;;;;;;;;4932928;28;97277;-73
2022/01/04 01:02:42;;;;;;;23.80;13.30;;;;;;;;;;4929876;28;95174;-73
2022/01/04 01:05:10;;;;;;;31.55;14.65;;;;;;;;;;4913644;28;97445;-73
2022/01/04 01:07:36;;;;;;;27.05;13.90;;;;;;;;;;4914141;28;95333;-73
2022/01/04 01:12:30;;;;;;;27.90;13.60;;;;;;;;;;4918325;28;97303;-73
2022/01/04 01:14:56;;;;;;;32.15;13.18;;;;;;;;;;4932168;28;95177;-73
2022/01/04 01:17:23;;;;;;;24.83;14.38;;;;;;;;;;4933447;28;97114;-72
2022/01/04 01:19:50;;;;;;;27.02;14.15;;;;;;;;;;4933330;28;97046;-74
2022/01/04 01:22:16;;;;;;;23.40;13.57;;;;;;;;;;4935815;28;95412;-74
2022/01/04 01:24:43;;;;;;;29.50;13.45;;;;;;;;;;4932479;28;97374;-74
2022/01/04 01:27:09;;;;;;;33.53;13.77;;;;;;;;;;4931534;28;95379;-73
2022/01/04 01:29:35;;;;;;;28.35;13.40;;;;;;;;;;4933763;28;97068;-73
2022/01/04 01:32:02;;;;;;;24.15;13.52;;;;;;;;;;4932801;28;97448;-74
2022/01/04 01:34:28;;;;;;;33.63;12.75;;;;;;;;;;4916338;28;96497;-74
2022/01/04 01:36:54;;;;;;;26.35;13.77;;;;;;;;;;4913597;28;96008;-73
2022/01/04 01:39:21;;;;;;;28.88;13.23;;;;;;;;;;4912549;28;97328;-73
2022/01/04 01:41:47;;;;;;;23.42;13.05;;;;;;;;;;4912876;28;95321;-74
2022/01/04 01:44:13;;;;;;;24.45;12.75;;;;;;;;;;4927440;28;96961;-75
2022/01/04 01:46:40;;;;;;;24.48;12.70;;;;;;;;;;4932582;28;95318;-74
2022/01/04 01:49:06;;;;;;;30.38;12.45;;;;;;;;;;4932699;28;97565;-74
2022/01/04 01:51:36;;;;;;;28.30;12.10;;;;;;;;;;4926715;28;97302;-73
2022/01/04 01:54:03;;;;;;;30.30;12.80;;;;;;;;;;4922383;28;95341;-73
2022/01/04 01:56:29;;;;;;;21.60;12.60;;;;;;;;;;4932478;28;97153;-74
2022/01/04 01:58:56;;;;;;;25.30;13.38;;;;;;;;;;4933087;28;97398;-74
2022/01/04 02:01:22;;;;;;;24.65;11.85;;;;;;;;;;4928512;28;95377;-74
2022/01/04 02:03:49;;;;;;;26.30;13.15;;;;;;;;;;4913628;28;96913;-74
2022/01/04 02:06:17;;;;;;;25.67;12.27;;;;;;;;;;4916441;28;96412;-74
2022/01/04 02:08:43;;;;;;;27.15;13.13;;;;;;;;;;4913651;28;95753;-74
2022/01/04 02:11:10;;;;;;;26.50;12.25;;;;;;;;;;4912491;28;97472;-73
2022/01/04 02:13:37;;;;;;;20.45;12.70;;;;;;;;;;4932425;28;95295;-76
2022/01/04 02:16:04;;;;;;;23.15;12.95;;;;;;;;;;4932451;28;97248;-76
2022/01/04 02:18:30;;;;;;;24.65;12.00;;;;;;;;;;4934656;28;97318;-77
2022/01/04 02:20:56;;;;;;;25.17;12.98;;;;;;;;;;4935401;28;95269;-74
2022/01/04 02:23:24;;;;;;;25.35;12.85;;;;;;;;;;4934924;28;97426;-75
2022/01/04 02:25:51;;;;;;;24.35;13.15;;;;;;;;;;4933272;28;95947;-77
2022/01/04 02:28:20;;;;;;;26.05;13.35;;;;;;;;;;4919781;28;95371;-76
2022/01/04 02:30:47;;;;;;;26.15;13.85;;;;;;;;;;4916281;28;97402;-76
2022/01/04 02:33:14;;;;;;;28.02;14.85;;;;;;;;;;4930564;28;95617;-74
2022/01/04 02:35:41;;;;;;;24.08;14.13;;;;;;;;;;4935065;28;96848;-77
2022/01/04 02:38:07;;;;;;;30.52;15.60;;;;;;;;;;4935504;28;97382;-76
2022/01/04 02:40:33;;;;;;;29.77;15.45;;;;;;;;;;4935874;28;95304;-76
2022/01/04 02:43:00;;;;;;;25.73;15.45;;;;;;;;;;4934857;28;96776;-74
2022/01/04 02:45:26;;;;;;;26.70;15.02;;;;;;;;;;4935088;28;97356;-74
2022/01/04 02:47:53;;;;;;;34.00;15.48;;;;;;;;;;4935682;28;95427;-74
2022/01/04 02:50:19;;;;;;;26.02;16.05;;;;;;;;;;4937709;28;96990;-78
2022/01/04 02:52:45;;;;;;;30.40;16.50;;;;;;;;;;4927577;28;95092;-73
2022/01/04 02:55:13;;;;;;;27.42;16.38;;;;;;;;;;4917204;28;96778;-76
2022/01/04 02:57:39;;;;;;;27.88;16.20;;;;;;;;;;4916333;28;97071;-74
2022/01/04 03:00:07;;;;;;;33.30;18.15;;;;;;;;;;4916016;28;95521;-75
2022/01/04 03:02:34;;;;;;;31.00;16.25;;;;;;;;;;4919820;28;96868;-74
2022/01/04 03:05:00;;;;;;;31.25;16.60;;;;;;;;;;4916129;28;97337;-74
2022/01/04 03:07:26;;;;;;;27.60;16.63;;;;;;;;;;4915474;28;95354;-74
2022/01/04 03:09:53;;;;;;;28.55;15.60;;;;;;;;;;4916143;28;96800;-73
2022/01/04 03:12:20;;;;;;;29.90;15.52;;;;;;;;;;4918669;28;95705;-73
2022/01/04 03:14:47;;;;;;;32.13;17.65;;;;;;;;;;4935580;28;97110;-73
2022/01/04 03:17:13;;;;;;;26.83;16.98;;;;;;;;;;4934987;28;96568;-74
2022/01/04 03:19:39;;;;;;;26.38;16.75;;;;;;;;;;4935273;28;95341;-74
2022/01/04 03:22:06;;;;;;;32.33;16.83;;;;;;;;;;4935186;28;97283;-73
2022/01/04 03:24:32;;;;;;;29.83;15.88;;;;;;;;;;4916858;28;97367;-74
2022/01/04 03:26:58;;;;;;;32.28;16.55;;;;;;;;;;4915640;28;95294;-74
2022/01/04 03:29:25;;;;;;;33.10;16.85;;;;;;;;;;4915137;28;96832;-75
2022/01/04 03:31:52;;;;;;;25.80;16.80;;;;;;;;;;4918615;28;97269;-74
2022/01/04 03:34:18;;;;;;;27.92;17.13;;;;;;;;;;4930584;28;97038;-74
2022/01/04 03:36:44;;;;;;;30.98;16.63;;;;;;;;;;4935057;28;97751;-75
2022/01/04 03:39:11;;;;;;;30.63;16.95;;;;;;;;;;4934705;28;95044;-75
2022/01/04 03:41:39;;;;;;;30.35;17.17;;;;;;;;;;4934529;28;96792;-75
2022/01/04 03:44:06;;;;;;;31.92;17.52;;;;;;;;;;4924549;28;97401;-74
2022/01/04 03:46:32;;;;;;;28.45;17.00;;;;;;;;;;4915010;28;95406;-75
2022/01/04 03:48:59;;;;;;;31.13;17.90;;;;;;;;;;4915338;28;96564;-77
2022/01/04 03:51:25;;;;;;;33.08;16.73;;;;;;;;;;4915175;28;97353;-75
2022/01/04 03:53:51;;;;;;;32.08;17.60;;;;;;;;;;4918934;28;95305;-75
2022/01/04 03:56:18;;;;;;;30.90;18.13;;;;;;;;;;4914492;28;97225;-75
2022/01/04 03:58:44;;;;;;;35.38;19.50;;;;;;;;;;4915546;28;95413;-76
2022/01/04 04:01:11;;;;;;;31.33;17.33;;;;;;;;;;4915153;28;97030;-74
2022/01/04 04:03:37;;;;;;;26.33;16.20;;;;;;;;;;4919163;28;97728;-75
2022/01/04 04:06:04;;;;;;;29.05;17.38;;;;;;;;;;4934936;28;95345;-76
2022/01/04 04:08:30;;;;;;;31.38;17.00;;;;;;;;;;4934535;28;96861;-75
2022/01/04 04:10:56;;;;;;;30.08;16.92;;;;;;;;;;4934137;28;97610;-76
2022/01/04 04:13:23;;;;;;;29.88;17.38;;;;;;;;;;4933044;28;95365;-74
2022/01/04 04:15:49;;;;;;;30.55;16.98;;;;;;;;;;4937325;28;96781;-76
2022/01/04 04:18:16;;;;;;;28.15;16.35;;;;;;;;;;4932999;28;95469;-77
2022/01/04 04:20:43;;;;;;;32.90;17.92;;;;;;;;;;4934719;28;96770;-74
2022/01/04 04:23:10;;;;;;;28.48;17.48;;;;;;;;;;4933300;28;97752;-75
2022/01/04 04:25:37;;;;;;;29.83;17.23;;;;;;;;;;4916065;28;95366;-76
2022/01/04 04:28:03;;;;;;;26.80;17.27;;;;;;;;;;4915116;28;97176;-75
2022/01/04 04:30:30;;;;;;;30.38;17.33;;;;;;;;;;4913702;28;96152;-75
2022/01/04 04:32:56;;;;;;;35.20;17.38;;;;;;;;;;4913787;28;95385;-74
2022/01/04 04:35:23;;;;;;;33.10;17.83;;;;;;;;;;4916769;28;96808;-74
2022/01/04 04:37:49;;;;;;;31.63;18.02;;;;;;;;;;4917463;28;98009;-75
2022/01/04 04:40:15;;;;;;;32.53;18.52;;;;;;;;;;4913543;28;96781;-74
2022/01/04 04:42:42;;;;;;;30.88;17.80;;;;;;;;;;4913285;28;97362;-75
2022/01/04 04:45:08;;;;;;;30.60;17.95;;;;;;;;;;4924128;28;95237;-74
2022/01/04 04:47:35;;;;;;;28.13;16.90;;;;;;;;;;4933520;28;96808;-75
2022/01/04 04:50:03;;;;;;;29.80;17.63;;;;;;;;;;4933949;28;96175;-76
2022/01/04 04:52:29;;;;;;;37.30;19.98;;;;;;;;;;4933361;28;95162;-76
2022/01/04 04:54:55;;;;;;;32.28;17.55;;;;;;;;;;4932799;28;96920;-75
2022/01/04 04:57:22;;;;;;;32.58;18.40;;;;;;;;;;4933365;28;97353;-75
2022/01/04 04:59:48;;;;;;;35.85;18.60;;;;;;;;;;4936838;28;95831;-75
2022/01/04 05:02:14;;;;;;;30.05;17.65;;;;;;;;;;4932189;28;97057;-74
2022/01/04 05:04:41;;;;;;;27.70;17.92;;;;;;;;;;4928862;28;96453;-75
2022/01/04 05:07:07;;;;;;;31.38;17.73;;;;;;;;;;4933225;28;96808;-75
2022/01/04 05:09:33;;;;;;;29.75;17.42;;;;;;;;;;4932866;28;96284;-75
2022/01/04 05:12:01;;;;;;;29.08;16.58;;;;;;;;;;4931928;28;95388;-75
2022/01/04 05:14:28;;;;;;;34.10;17.75;;;;;;;;;;4932036;28;96810;-74
2022/01/04 05:16:54;;;;;;;29.58;17.70;;;;;;;;;;4933132;28;97237;-75
2022/01/04 05:19:20;;;;;;;27.35;17.02;;;;;;;;;;4936198;28;95251;-76
2022/01/04 05:21:47;;;;;;;26.67;17.02;;;;;;;;;;4933496;28;97278;-75
2022/01/04 05:24:13;;;;;;;28.90;16.50;;;;;;;;;;4933284;28;95236;-75
2022/01/04 05:26:40;;;;;;;35.15;18.90;;;;;;;;;;4915708;28;97128;-76
2022/01/04 05:29:06;;;;;;;28.40;17.48;;;;;;;;;;4915204;28;96878;-74
2022/01/04 05:31:36;;;;;;;31.27;18.60;;;;;;;;;;4924698;28;95117;-77
2022/01/04 05:34:02;;;;;;;33.30;20.27;;;;;;;;;;4930840;28;97168;-73
2022/01/04 05:36:29;;;;;;;31.45;19.17;;;;;;;;;;4921797;28;97354;-73
2022/01/04 05:38:55;;;;;;;31.65;18.67;;;;;;;;;;4929498;28;95312;-73
2022/01/04 05:41:21;;;;;;;30.42;17.73;;;;;;;;;;4918897;28;95883;-73
2022/01/04 05:43:48;;;;;;;29.98;18.42;;;;;;;;;;4923479;28;95357;-73
2022/01/04 05:46:17;;;;;;;29.13;18.02;;;;;;;;;;4912985;28;96791;-73
2022/01/04 05:48:44;;;;;;;29.98;17.38;;;;;;;;;;4916692;28;97332;-73
2022/01/04 05:51:10;;;;;;;27.33;17.98;;;;;;;;;;4927409;28;95133;-74
2022/01/04 05:53:37;;;;;;;30.27;17.90;;;;;;;;;;4933490;28;97530;-74
2022/01/04 05:56:05;;;;;;;27.20;16.60;;;;;;;;;;4916429;28;96755;-74
2022/01/04 05:58:32;;;;;;;29.00;18.13;;;;;;;;;;4916816;28;95340;-73
2022/01/04 06:00:59;;;;;;;27.63;16.55;;;;;;;;;;4917168;28;96766;-74
2022/01/04 06:03:25;;;;;;;27.05;16.38;;;;;;;;;;4920589;28;97757;-77
2022/01/04 06:05:53;;;;;;;27.42;15.45;;;;;;;;;;4916027;28;96030;-77
2022/01/04 06:08:21;;;;;;;29.92;16.50;;;;;;;;;;4915971;28;97375;-76
2022/01/04 06:10:51;;;;;;;26.67;15.88;;;;;;;;;;4917207;28;95147;-77
2022/01/04 06:16:03;;;;;;;27.58;16.98;;;;;;;;;;4935294;28;97261;-75
2022/01/04 06:18:29;;;;;;;30.67;16.77;;;;;;;;;;4935547;28;95480;-77
2022/01/04 06:20:56;;;;;;;28.80;17.52;;;;;;;;;;4935183;28;97207;-74
2022/01/04 06:23:22;;;;;;;27.17;16.83;;;;;;;;;;4935272;28;98005;-77
2022/01/04 06:25:51;;;;;;;31.20;17.73;;;;;;;;;;4938948;28;95233;-76
2022/01/04 06:28:17;;;;;;;33.78;17.63;;;;;;;;;;4935348;28;97681;-77
2022/01/04 06:30:43;;;;;;;32.60;18.45;;;;;;;;;;4927112;28;96038;-77
2022/01/04 06:33:10;;;;;;;33.20;18.80;;;;;;;;;;4916297;28;97085;-76
2022/01/04 06:35:37;;;;;;;35.80;20.40;;;;;;;;;;4916808;28;96265;-77
2022/01/04 06:38:04;;;;;;;37.67;22.05;;;;;;;;;;4916255;28;95603;-74
2022/01/04 06:40:30;;;;;;;36.55;21.85;;;;;;;;;;4921381;28;97100;-77
2022/01/04 06:42:57;;;;;;;38.47;21.45;;;;;;;;;;4934178;28;96234;-78
2022/01/04 06:45:23;;;;;;;41.67;21.75;;;;;;;;;;4927290;28;95183;-74
2022/01/04 06:47:49;;;;;;;38.90;22.27;;;;;;;;;;4918946;28;97221;-76
2022/01/04 06:50:18;;;;;;;45.38;22.83;;;;;;;;;;4916460;28;95305;-76
2022/01/04 06:52:44;;;;;;;35.85;21.85;;;;;;;;;;4916412;28;97141;-78
2022/01/04 06:55:14;;;;;;;38.83;21.25;;;;;;;;;;4916529;28;97317;-77
2022/01/04 06:57:40;;;;;;;41.55;22.60;;;;;;;;;;4915650;28;95331;-74
2022/01/04 07:00:07;;;;;;;42.22;22.10;;;;;;;;;;4916419;28;96927;-75
2022/01/04 07:02:33;;;;;;;38.88;20.67;;;;;;;;;;4931743;28;97136;-74
2022/01/04 07:05:00;;;;;;;41.63;21.77;;;;;;;;;;4934449;28;95201;-76
2022/01/04 07:07:26;;;;;;;43.10;21.63;;;;;;;;;;4934958;28;96881;-76
2022/01/04 07:09:53;;;;;;;41.35;22.45;;;;;;;;;;4937167;28;97605;-75
2022/01/04 07:12:19;;;;;;;36.08;19.85;;;;;;;;;;4918410;28;97046;-77
2022/01/04 07:14:45;;;;;;;39.15;21.23;;;;;;;;;;4915945;28;97769;-78
2022/01/04 07:17:12;;;;;;;37.47;21.58;;;;;;;;;;4931331;28;95343;-74
2022/01/04 07:19:39;;;;;;;45.15;20.80;;;;;;;;;;4934749;28;96750;-77
2022/01/04 07:22:05;;;;;;;41.20;20.92;;;;;;;;;;4933196;28;97375;-76
2022/01/04 07:24:32;;;;;;;42.95;22.70;;;;;;;;;;4934789;28;95311;-75
2022/01/04 07:26:58;;;;;;;37.90;22.27;;;;;;;;;;4932905;28;96788;-77
2022/01/04 07:29:24;;;;;;;37.33;21.63;;;;;;;;;;4937756;28;97316;-76
2022/01/04 07:31:51;;;;;;;41.65;21.67;;;;;;;;;;4922433;28;96768;-75
2022/01/04 07:34:17;;;;;;;40.42;21.38;;;;;;;;;;4933731;28;95815;-78
2022/01/04 07:36:43;;;;;;;39.85;22.58;;;;;;;;;;4926007;28;95391;-77
2022/01/04 07:39:10;;;;;;;39.47;22.40;;;;;;;;;;4918100;28;96799;-76
2022/01/04 07:41:36;;;;;;;48.05;22.77;;;;;;;;;;4927949;28;97351;-77
2022/01/04 07:44:02;;;;;;;36.83;21.90;;;;;;;;;;4934255;28;95284;-76
2022/01/04 07:46:29;;;;;;;39.17;21.55;;;;;;;;;;4936527;28;100036;-74
2022/01/04 07:48:55;;;;;;;36.47;20.88;;;;;;;;;;4918135;28;97274;-77
2022/01/04 07:51:22;;;;;;;40.53;22.52;;;;;;;;;;4937452;28;95425;-73
2022/01/04 07:53:48;;;;;;;40.58;21.33;;;;;;;;;;4933716;28;95979;-73
2022/01/04 07:56:14;;;;;;;37.33;21.95;;;;;;;;;;4933846;28;95357;-73
2022/01/04 07:58:41;;;;;;;38.13;21.95;;;;;;;;;;4934879;28;96595;-73
2022/01/04 08:01:07;;;;;;;41.05;21.65;;;;;;;;;;4924495;28;97373;-73
2022/01/04 08:03:34;;;;;;;44.25;22.55;;;;;;;;;;4928302;28;95241;-73
2022/01/04 08:06:00;;;;;;;44.47;22.33;;;;;;;;;;4934203;28;96786;-73
2022/01/04 08:08:26;;;;;;;43.47;22.13;;;;;;;;;;4929872;28;97348;-74
2022/01/04 08:10:53;;;;;;;41.13;21.40;;;;;;;;;;4934685;28;95334;-73
2022/01/04 08:13:19;;;;;;;42.97;21.45;;;;;;;;;;4935958;28;96790;-73
2022/01/04 08:15:45;;;;;;;44.17;22.58;;;;;;;;;;4933125;28;95503;-74
2022/01/04 08:18:12;;;;;;;40.40;22.33;;;;;;;;;;4932655;28;97179;-73
2022/01/04 08:20:38;;;;;;;37.05;22.35;;;;;;;;;;4920065;28;96175;-74
2022/01/04 08:23:04;;;;;;;39.20;22.17;;;;;;;;;;4933646;28;95210;-74
2022/01/04 08:25:31;;;;;;;44.85;22.05;;;;;;;;;;4927543;28;97174;-74
2022/01/04 08:27:57;;;;;;;41.03;21.02;;;;;;;;;;4921362;28;97070;-73
2022/01/04 08:30:24;;;;;;;42.05;22.00;;;;;;;;;;4925732;28;95365;-73
2022/01/04 08:32:51;;;;;;;36.95;19.15;;;;;;;;;;4915760;28;96886;-75
2022/01/04 08:35:17;;;;;;;43.45;21.58;;;;;;;;;;4918680;28;97505;-76
2022/01/04 08:37:44;;;;;;;36.95;22.23;;;;;;;;;;4930850;28;96830;-76
2022/01/04 08:40:10;;;;;;;43.80;22.23;;;;;;;;;;4932933;28;97228;-77
2022/01/04 08:42:37;;;;;;;38.92;22.17;;;;;;;;;;4916022;28;95521;-74
2022/01/04 08:45:04;;;;;;;42.65;22.90;;;;;;;;;;4916381;28;96834;-78
2022/01/04 08:47:31;;;;;;;39.38;21.67;;;;;;;;;;4921631;28;97309;-74
2022/01/04 08:49:57;;;;;;;40.75;20.80;;;;;;;;;;4933288;28;95479;-77
2022/01/04 08:52:26;;;;;;;36.65;20.70;;;;;;;;;;4929776;28;96586;-74
2022/01/04 08:54:57;;;;;;;40.75;21.23;;;;;;;;;;4913033;28;97240;-74
2022/01/04 08:57:24;;;;;;;37.03;20.77;;;;;;;;;;4917481;28;95529;-76
2022/01/04 08:59:54;;;;;;;35.30;19.30;;;;;;;;;;4921501;28;97806;-76
2022/01/04 09:02:21;;;;;;;35.15;19.30;;;;;;;;;;4915698;28;95482;-76
2022/01/04 09:04:48;;;;;;;34.13;18.80;;;;;;;;;;4917425;28;95444;-71
2022/01/04 09:07:14;;;;;;;36.58;19.42;;;;;;;;;;4924547;28;97301;-72
2022/01/04 09:09:41;;;;;;;38.33;19.90;;;;;;;;;;4928159;28;95310;-76
2022/01/04 09:12:32;;;;;;;35.08;18.75;;;;;;;;;;4917687;28;96811;-77
2022/01/04 09:15:06;;;;;;;33.35;17.45;;;;;;;;;;4925597;28;97456;-76
2022/01/04 09:20:18;;;;;;;30.05;15.93;;;;;;;;;;4934058;28;96778;-76
2022/01/04 09:22:44;;;;;;;28.13;15.63;;;;;;;;;;4931647;28;95105;-75
2022/01/04 09:25:10;;;;;;;28.92;15.38;;;;;;;;;;4915054;28;96783;-74
2022/01/04 09:27:37;;;;;;;29.45;15.45;;;;;;;;;;4931145;28;97415;-75
2022/01/04 09:30:04;;;;;;;25.25;14.18;;;;;;;;;;4918529;28;95553;-76
2022/01/04 09:32:31;;;;;;;25.60;14.68;;;;;;;;;;4911622;28;95982;-76
2022/01/04 09:34:58;;;;;;;22.17;12.60;;;;;;;;;;4926743;28;97833;-74
2022/01/04 09:37:25;;;;;;;21.00;11.98;;;;;;;;;;4928180;28;95449;-74
2022/01/04 09:39:51;;;;;;;23.17;11.40;;;;;;;;;;4928318;28;95865;-74
2022/01/04 09:42:21;;;;;;;17.63;9.93;;;;;;;;;;4924734;28;95410;-74
2022/01/04 09:44:48;;;;;;;15.00;8.10;;;;;;;;;;4925195;28;96814;-78
2022/01/04 09:47:15;;;;;;;14.95;8.32;;;;;;;;;;4930367;28;97333;-75
2022/01/04 09:49:41;;;;;;;15.93;7.80;;;;;;;;;;4926572;28;95393;-76
2022/01/04 09:52:09;;;;;;;12.73;6.72;;;;;;;;;;4933895;28;96826;-74
2022/01/04 09:54:37;;;;;;;10.57;5.72;;;;;;;;;;4928454;28;97379;-74
2022/01/04 09:57:03;;;;;;;12.02;6.72;;;;;;;;;;4918937;28;95161;-74
2022/01/04 09:59:29;;;;;;;11.07;5.85;;;;;;;;;;4938121;28;96068;-76
2022/01/04 10:02:10;;;;;;;11.95;5.40;;;;;;;;;;4925519;28;97174;-76
2022/01/04 10:04:37;;;;;;;10.60;4.80;;;;;;;;;;4935915;28;96826;-77
2022/01/04 10:07:04;;;;;;;9.38;4.70;;;;;;;;;;4926827;28;97256;-76
2022/01/04 10:09:44;;;;;;;9.40;4.60;;;;;;;;;;4914562;28;95400;-76
2022/01/04 10:12:11;;;;;;;9.00;4.30;;;;;;;;;;4921391;28;97107;-76
2022/01/04 10:14:40;;;;;;;9.20;4.15;;;;;;;;;;4928024;28;96322;-74
2022/01/04 10:17:13;;;;;;;7.22;4.13;;;;;;;;;;4914942;28;96467;-74
2022/01/04 10:19:41;;;;;;;8.32;3.80;;;;;;;;;;4930100;28;97107;-72
2022/01/04 10:22:17;;;;;;;10.05;4.20;;;;;;;;;;4917819;28;98499;-74
2022/01/04 10:24:44;;;;;;;7.55;4.57;;;;;;;;;;4920578;28;95491;-75
2022/01/04 10:27:29;;;;;;;8.30;4.15;;;;;;;;;;4924208;28;97718;-72
2022/01/04 10:30:15;;;;;;;10.10;4.85;;;;;;;;;;4920187;28;95453;-74
2022/01/04 10:32:50;;;;;;;10.88;4.80;;;;;;;;;;4925329;28;98886;-73
2022/01/04 10:35:24;;;;;;;8.23;4.68;;;;;;;;;;4921323;28;97322;-74
2022/01/04 10:37:50;;;;;;;8.68;4.85;;;;;;;;;;4922585;28;95401;-75
2022/01/04 10:40:16;;;;;;;9.73;5.53;;;;;;;;;;4914190;28;96939;-73
2022/01/04 10:42:43;;;;;;;10.95;5.68;;;;;;;;;;4924282;28;96909;-73
2022/01/04 10:45:23;;;;;;;11.10;5.72;;;;;;;;;;4925753;28;96777;-74
2022/01/04 10:47:49;;;;;;;15.27;6.03;;;;;;;;;;4923853;28;97501;-74
2022/01/04 10:50:29;;;;;;;11.93;6.63;;;;;;;;;;4930618;28;95717;-74
2022/01/04 10:52:57;;;;;;;10.77;5.70;;;;;;;;;;4919850;28;97088;-74
2022/01/04 10:55:23;;;;;;;17.08;7.40;;;;;;;;;;4917664;28;97327;-74
2022/01/04 10:57:49;;;;;;;12.70;6.07;;;;;;;;;;4926984;28;95329;-74
2022/01/04 11:00:19;;;;;;;15.43;6.20;;;;;;;;;;4926801;28;96633;-74
2022/01/04 11:02:46;;;;;;;14.75;7.10;;;;;;;;;;4920242;28;97302;-75
2022/01/04 11:05:17;;;;;;;14.25;7.00;;;;;;;;;;4929248;28;95160;-75
2022/01/04 11:07:59;;;;;;;13.60;7.72;;;;;;;;;;4921099;28;95939;-74
2022/01/04 11:10:30;;;;;;;16.30;7.38;;;;;;;;;;4928385;28;97720;-75
2022/01/04 11:12:58;;;;;;;14.45;7.13;;;;;;;;;;4920513;28;97220;-75
2022/01/04 11:15:25;;;;;;;18.50;7.25;;;;;;;;;;4930009;28;97355;-74
2022/01/04 11:17:51;;;;;;;14.60;7.35;;;;;;;;;;4928233;28;95463;-76
2022/01/04 11:20:18;;;;;;;17.95;8.00;;;;;;;;;;4928322;28;96885;-75
2022/01/04 11:22:45;;;;;;;15.13;8.13;;;;;;;;;;4929805;28;97570;-74
2022/01/04 11:25:13;;;;;;;15.05;8.27;;;;;;;;;;4914614;28;95193;-74
2022/01/04 11:27:40;;;;;;;12.80;7.70;;;;;;;;;;4929388;28;97021;-74
2022/01/04 11:30:11;;;;;;;15.13;8.07;;;;;;;;;;4921505;28;97335;-75
2022/01/04 11:32:38;;;;;;;21.17;7.65;;;;;;;;;;4927397;28;95534;-72
2022/01/04 11:35:05;;;;;;;16.80;8.18;;;;;;;;;;4927998;28;97307;-74
2022/01/04 11:37:31;;;;;;;16.80;8.18;;;;;;;;;;4919437;28;95431;-74
2022/01/04 11:40:22;;;;;;;17.83;7.53;;;;;;;;;;4928696;28;97019;-76
2022/01/04 11:42:48;;;;;;;17.05;7.18;;;;;;;;;;4916116;28;97061;-75
2022/01/04 11:45:16;;;;;;;16.83;7.65;;;;;;;;;;4924478;28;96858;-75
2022/01/04 11:47:46;;;;;;;17.42;6.05;;;;;;;;;;4927327;28;96898;-76
2022/01/04 11:50:24;;;;;;;19.13;5.25;;;;;;;;;;4924136;28;97748;-75
2022/01/04 11:52:55;;;;;;;23.63;4.78;;;;;;;;;;4918495;28;95818;-77
2022/01/04 11:55:31;;;;;;;22.50;4.67;;;;;;;;;;4920392;28;97517;-76
2022/01/04 11:58:01;;;;;;;8.82;2.50;;;;;;;;;;4930472;28;95769;-75
2022/01/04 12:00:29;;;;;;;7.60;2.47;;;;;;;;;;4924933;28;97011;-75
2022/01/04 12:03:07;;;;;;;8.10;2.45;;;;;;;;;;4922879;28;97252;-79
2022/01/04 12:05:35;;;;;;;6.82;1.90;;;;;;;;;;4924798;28;95456;-77
2022/01/04 12:08:15;;;;;;;8.25;2.10;;;;;;;;;;4930416;28;96942;-74
2022/01/04 12:10:41;;;;;;;5.93;1.48;;;;;;;;;;4915488;28;97436;-76
2022/01/04 12:13:09;;;;;;;10.80;2.80;;;;;;;;;;4927456;28;95936;-73
2022/01/04 12:15:36;;;;;;;7.78;2.25;;;;;;;;;;4922311;28;95784;-74
2022/01/04 12:18:05;;;;;;;8.55;2.00;;;;;;;;;;4928011;28;95226;-73
2022/01/04 12:20:40;;;;;;;6.45;2.00;;;;;;;;;;4929288;28;97192;-77
2022/01/04 12:23:26;;;;;;;5.30;1.80;;;;;;;;;;4913715;28;97278;-74
2022/01/04 12:26:04;;;;;;;4.53;1.85;;;;;;;;;;4920309;28;95695;-75
2022/01/04 12:28:32;;;;;;;9.32;2.08;;;;;;;;;;4916118;28;95893;-75
2022/01/04 12:31:13;;;;;;;5.47;2.10;;;;;;;;;;4922687;28;97229;-76
2022/01/04 12:33:40;;;;;;;6.97;2.10;;;;;;;;;;4914695;28;95258;-77
2022/01/04 12:36:07;;;;;;;5.70;1.90;;;;;;;;;;4920689;28;96995;-75
2022/01/04 12:38:34;;;;;;;5.28;1.90;;;;;;;;;;4931761;28;97413;-74
2022/01/04 12:41:01;;;;;;;13.68;2.28;;;;;;;;;;4928165;28;96871;-75
2022/01/04 12:43:31;;;;;;;8.93;2.40;;;;;;;;;;4921303;28;97292;-73
2022/01/04 12:45:58;;;;;;;8.02;2.38;;;;;;;;;;4923656;28;95515;-73
2022/01/04 12:48:44;;;;;;;6.18;2.03;;;;;;;;;;4933025;28;96823;-74
2022/01/04 12:51:29;;;;;;;7.88;2.75;;;;;;;;;;4921275;28;96444;-74
2022/01/04 12:53:57;;;;;;;11.38;3.13;;;;;;;;;;4925055;28;95366;-73
2022/01/04 12:56:24;;;;;;;8.55;2.30;;;;;;;;;;4928255;28;97009;-74
2022/01/04 12:58:54;;;;;;;3.92;2.03;;;;;;;;;;4925629;28;97306;-74
2022/01/04 13:01:22;;;;;;;5.35;2.20;;;;;;;;;;4924879;28;96857;-73
2022/01/04 13:03:49;;;;;;;5.32;1.90;;;;;;;;;;4926793;28;97464;-74
2022/01/04 13:06:15;;;;;;;9.10;2.42;;;;;;;;;;4917756;28;95348;-76
2022/01/04 13:08:49;;;;;;;6.70;1.95;;;;;;;;;;4914748;28;96974;-76
2022/01/04 13:11:16;;;;;;;4.38;2.13;;;;;;;;;;4927811;28;97574;-76
2022/01/04 13:13:42;;;;;;;4.63;2.15;;;;;;;;;;4927468;28;95327;-76
2022/01/04 13:16:18;;;;;;;5.78;2.08;;;;;;;;;;4926789;28;97005;-77
2022/01/04 13:18:45;;;;;;;4.30;1.45;;;;;;;;;;4928145;28;97285;-75
2022/01/04 13:21:12;;;;;;;3.60;1.20;;;;;;;;;;4928669;28;95144;-75
2022/01/04 13:23:39;;;;;;;2.50;1.25;;;;;;;;;;4930870;28;96760;-76
2022/01/04 13:26:05;;;;;;;8.95;1.95;;;;;;;;;;4929742;28;95131;-76
2022/01/04 13:28:33;;;;;;;3.80;1.63;;;;;;;;;;4929727;28;96641;-76
2022/01/04 13:30:59;;;;;;;7.28;2.60;;;;;;;;;;4929917;28;97445;-76
2022/01/04 13:33:25;;;;;;;10.95;2.90;;;;;;;;;;4931298;28;95178;-77
2022/01/04 13:35:53;;;;;;;8.05;1.60;;;;;;;;;;4930830;28;96208;-75
2022/01/04 13:38:21;;;;;;;6.90;1.85;;;;;;;;;;4931287;28;97256;-76
2022/01/04 13:40:48;;;;;;;10.20;2.15;;;;;;;;;;4927281;28;96547;-77
2022/01/04 13:43:16;;;;;;;10.95;2.47;;;;;;;;;;4927980;28;97006;-75
2022/01/04 13:45:46;;;;;;;7.10;2.10;;;;;;;;;;4928540;28;95294;-75
2022/01/04 13:48:19;;;;;;;7.28;1.60;;;;;;;;;;4929251;28;96894;-75
2022/01/04 13:50:47;;;;;;;8.27;1.92;;;;;;;;;;4925416;28;97418;-74
2022/01/04 13:53:15;;;;;;;8.55;2.10;;;;;;;;;;4929826;28;96274;-75
2022/01/04 13:55:49;;;;;;;10.52;2.60;;;;;;;;;;4919576;28;96859;-74
2022/01/04 13:58:28;;;;;;;6.57;1.90;;;;;;;;;;4923690;28;97418;-75
2022/01/04 14:00:54;;;;;;;6.63;1.70;;;;;;;;;;4928167;28;95553;-75
2022/01/04 14:03:30;;;;;;;7.88;1.67;;;;;;;;;;4917092;28;97007;-77
2022/01/04 14:05:57;;;;;;;4.65;1.38;;;;;;;;;;4930341;28;97717;-75
2022/01/04 14:08:42;;;;;;;9.98;1.63;;;;;;;;;;4928683;28;96926;-77
2022/01/04 14:11:08;;;;;;;4.85;1.50;;;;;;;;;;4928314;28;97565;-74
2022/01/04 14:13:38;;;;;;;9.55;1.88;;;;;;;;;;4929336;28;95284;-75
2022/01/04 14:16:11;;;;;;;5.18;1.83;;;;;;;;;;4928084;28;97475;-75
2022/01/04 14:18:58;;;;;;;7.38;1.83;;;;;;;;;;4933078;28;97738;-75
2022/01/04 14:21:28;;;;;;;10.23;1.50;;;;;;;;;;4925599;28;95451;-75
2022/01/04 14:23:55;;;;;;;9.82;1.70;;;;;;;;;;4931301;28;96894;-74
2022/01/04 14:26:22;;;;;;;4.32;1.40;;;;;;;;;;4920155;28;97404;-75
2022/01/04 14:28:48;;;;;;;10.25;2.35;;;;;;;;;;4909689;28;96210;-74
2022/01/04 14:31:18;;;;;;;3.90;1.60;;;;;;;;;;4917771;28;97285;-76
2022/01/04 14:33:44;;;;;;;3.95;1.20;;;;;;;;;;4917017;28;95211;-75
2022/01/04 14:36:11;;;;;;;5.70;1.55;;;;;;;;;;4930401;28;97088;-76
2022/01/04 14:38:38;;;;;;;10.18;1.50;;;;;;;;;;4930237;28;97386;-76